createdAt,value
2018-07-10T00:02:49.018Z,5.43
2018-07-10T00:06:31.894Z,5.90
2018-07-10T00:11:21.125Z,5.30
2018-07-10T00:13:51.246Z,5.07
2018-07-10T00:16:21.336Z,4.53
2018-07-10T00:18:51.067Z,4.67
2018-07-10T00:21:20.986Z,5.40
2018-07-10T00:23:51.264Z,5.50
2018-07-10T00:26:21.023Z,5.10
2018-07-10T00:28:51.005Z,5.13
2018-07-10T00:31:20.854Z,5.07
2018-07-10T00:33:50.657Z,5.83
2018-07-10T00:36:20.508Z,4.93
2018-07-10T00:38:58.923Z,5.33
2018-07-10T00:41:31.849Z,4.93
2018-07-10T00:44:02.339Z,5.13
2018-07-10T00:46:32.926Z,5.30
2018-07-10T00:49:02.776Z,5.97
2018-07-10T00:51:33.079Z,5.37
2018-07-10T00:54:02.940Z,4.83
2018-07-10T00:56:32.797Z,5.17
2018-07-10T00:59:05.445Z,4.73
2018-07-10T01:01:35.992Z,6.30
2018-07-10T01:04:05.806Z,5.13
2018-07-10T01:06:35.732Z,4.70
2018-07-10T01:09:06.060Z,5.30
2018-07-10T01:11:35.925Z,4.77
2018-07-10T01:14:05.787Z,5.60
2018-07-10T01:16:36.710Z,5.43
2018-07-10T01:19:07.355Z,5.10
2018-07-10T01:21:37.182Z,4.80
2018-07-10T01:24:07.067Z,4.60
2018-07-10T01:26:39.047Z,4.60
2018-07-10T01:29:19.869Z,5.30
2018-07-10T01:31:50.603Z,4.90
2018-07-10T01:34:20.352Z,5.50
2018-07-10T01:36:50.271Z,5.00
2018-07-10T01:39:20.185Z,5.20
2018-07-10T01:41:50.106Z,5.40
2018-07-10T01:44:20.131Z,4.87
2018-07-10T01:46:49.926Z,5.07
2018-07-10T01:49:19.792Z,5.20
2018-07-10T01:51:49.666Z,4.67
2018-07-10T01:54:21.355Z,4.90
2018-07-10T01:56:55.153Z,4.80
2018-07-10T01:59:27.484Z,5.53
2018-07-10T02:01:57.498Z,5.37
2018-07-10T02:04:27.539Z,5.80
2018-07-10T02:06:57.538Z,4.63
2018-07-10T02:09:27.371Z,5.30
2018-07-10T02:11:57.273Z,5.40
2018-07-10T02:14:27.190Z,5.60
2018-07-10T02:16:57.147Z,4.80
2018-07-10T02:19:27.047Z,5.03
2018-07-10T02:21:57.030Z,5.20
2018-07-10T02:24:27.455Z,4.57
2018-07-10T02:26:57.401Z,4.77
2018-07-10T02:29:27.287Z,5.40
2018-07-10T02:31:57.194Z,5.27
2018-07-10T02:34:27.114Z,4.67
2018-07-10T02:36:57.018Z,5.13
2018-07-10T02:39:26.933Z,5.53
2018-07-10T02:41:56.909Z,5.40
2018-07-10T02:44:26.877Z,4.97
2018-07-10T02:46:56.894Z,5.40
2018-07-10T02:49:26.823Z,5.97
2018-07-10T02:52:04.710Z,5.20
2018-07-10T02:54:39.743Z,5.80
2018-07-10T02:57:10.293Z,5.33
2018-07-10T02:59:41.288Z,4.70
2018-07-10T03:02:21.416Z,5.73
2018-07-10T03:04:55.967Z,5.50
2018-07-10T03:07:26.708Z,5.90
2018-07-10T03:09:57.372Z,5.67
2018-07-10T03:12:28.987Z,5.20
2018-07-10T03:15:02.064Z,4.63
2018-07-10T03:17:32.302Z,5.80
2018-07-10T03:20:02.406Z,4.70
2018-07-10T03:22:32.321Z,4.83
2018-07-10T03:25:02.187Z,5.13
2018-07-10T03:27:32.308Z,5.73
2018-07-10T03:30:02.897Z,4.90
2018-07-10T03:32:33.178Z,5.70
2018-07-10T03:35:03.067Z,5.63
2018-07-10T03:37:33.030Z,5.63
2018-07-10T03:40:02.878Z,5.80
2018-07-10T03:42:32.956Z,5.60
2018-07-10T03:45:02.807Z,5.00
2018-07-10T03:47:32.732Z,6.63
2018-07-10T03:50:02.641Z,5.30
2018-07-10T03:52:34.846Z,5.97
2018-07-10T03:55:13.504Z,6.17
2018-07-10T03:57:43.437Z,5.50
2018-07-10T04:00:14.865Z,6.20
2018-07-10T04:02:52.500Z,6.60
2018-07-10T04:05:23.512Z,5.57
2018-07-10T04:07:55.916Z,5.93
2018-07-10T04:10:31.190Z,6.10
2018-07-10T04:13:20.588Z,6.00
2018-07-10T04:15:54.121Z,6.90
2018-07-10T04:18:26.865Z,5.57
2018-07-10T04:21:12.484Z,5.50
2018-07-10T04:23:43.217Z,5.70
2018-07-10T04:26:18.849Z,5.53
2018-07-10T04:28:51.162Z,5.27
2018-07-10T04:32:28.072Z,5.50
2018-07-10T04:34:58.016Z,6.47
2018-07-10T04:37:28.663Z,6.40
2018-07-10T04:39:59.086Z,5.70
2018-07-10T04:42:32.073Z,5.63
2018-07-10T04:45:11.626Z,6.17
2018-07-10T04:47:48.157Z,6.37
2018-07-10T04:50:33.218Z,6.00
2018-07-10T04:53:06.557Z,4.93
2018-07-10T04:55:39.992Z,6.33
2018-07-10T04:58:20.061Z,6.57
2018-07-10T05:00:57.394Z,5.23
2018-07-10T05:03:27.793Z,5.70
2018-07-10T05:06:02.928Z,6.00
2018-07-10T05:08:32.072Z,6.67
2018-07-10T05:11:01.864Z,6.90
2018-07-10T05:13:31.779Z,5.57
2018-07-10T05:16:04.152Z,6.87
2018-07-10T05:18:34.904Z,6.17
2018-07-10T05:21:10.827Z,5.80
2018-07-10T05:23:40.884Z,6.20
2018-07-10T05:26:13.706Z,5.83
2018-07-10T05:28:44.207Z,5.83
2018-07-10T05:31:14.192Z,5.33
2018-07-10T05:33:47.890Z,5.43
2018-07-10T05:36:18.169Z,5.80
2018-07-10T05:38:48.017Z,5.13
2018-07-10T05:41:21.214Z,5.33
2018-07-10T05:43:53.012Z,5.70
2018-07-10T05:46:25.299Z,5.40
2018-07-10T05:48:59.306Z,5.73
2018-07-10T05:51:33.058Z,6.20
2018-07-10T05:54:06.446Z,5.10
2018-07-10T05:56:36.652Z,5.40
2018-07-10T05:59:07.522Z,5.97
2018-07-10T06:01:38.683Z,5.10
2018-07-10T06:04:09.568Z,5.60
2018-07-10T06:06:39.474Z,5.03
2018-07-10T06:09:09.330Z,5.60
2018-07-10T06:11:47.508Z,5.60
2018-07-10T06:14:17.405Z,4.33
2018-07-10T06:16:47.347Z,6.17
2018-07-10T06:19:17.582Z,5.80
2018-07-10T06:21:48.508Z,5.03
2018-07-10T06:24:24.332Z,5.87
2018-07-10T06:27:02.590Z,6.47
2018-07-10T06:30:07.568Z,5.70
2018-07-10T06:32:54.945Z,6.13
2018-07-10T06:35:32.340Z,5.83
2018-07-10T06:38:02.441Z,5.23
2018-07-10T06:40:32.484Z,4.53
2018-07-10T06:43:25.023Z,6.00
2018-07-10T06:45:55.054Z,4.13
2018-07-10T06:48:24.937Z,6.07
2018-07-10T06:50:54.007Z,5.43
2018-07-10T06:53:25.851Z,6.70
2018-07-10T06:55:58.144Z,6.97
2018-07-10T06:58:32.599Z,6.00
2018-07-10T07:01:02.416Z,5.47
2018-07-10T07:03:32.583Z,5.13
2018-07-10T07:06:02.653Z,4.67
2018-07-10T07:08:32.665Z,4.73
2018-07-10T07:11:02.446Z,4.40
2018-07-10T07:16:57.223Z,5.57
2018-07-10T07:19:26.905Z,4.77
2018-07-10T07:21:56.803Z,4.77
2018-07-10T07:24:26.672Z,4.60
2018-07-10T07:26:56.424Z,5.00
2018-07-10T07:29:26.201Z,4.43
2018-07-10T07:31:55.964Z,4.83
2018-07-10T07:34:25.922Z,4.40
2018-07-10T07:36:55.834Z,4.28
2018-07-10T07:39:24.889Z,4.80
2018-07-10T07:41:54.909Z,4.47
2018-07-10T07:44:24.993Z,4.20
2018-07-10T07:46:54.825Z,4.60
2018-07-10T07:49:24.653Z,4.83
2018-07-10T07:51:54.610Z,4.77
2018-07-10T07:54:24.582Z,5.23
2018-07-10T07:56:54.445Z,4.80
2018-07-10T07:59:24.174Z,4.83
2018-07-10T08:01:53.345Z,5.70
2018-07-10T08:04:23.159Z,5.23
2018-07-10T08:06:52.929Z,4.63
2018-07-10T08:09:23.028Z,5.60
2018-07-10T08:11:52.933Z,5.80
2018-07-10T08:14:22.817Z,5.90
2018-07-10T08:16:52.687Z,5.20
2018-07-10T08:19:22.649Z,5.37
2018-07-10T08:21:52.619Z,4.77
2018-07-10T08:24:23.992Z,5.37
2018-07-10T08:26:57.400Z,5.33
2018-07-10T08:29:28.814Z,5.60
2018-07-10T08:31:58.827Z,5.00
2018-07-10T08:34:29.133Z,5.23
2018-07-10T08:36:58.985Z,4.80
2018-07-10T08:39:28.840Z,5.40
2018-07-10T08:41:58.559Z,4.43
2018-07-10T08:44:28.490Z,5.30
2018-07-10T08:46:58.507Z,4.77
2018-07-10T08:49:33.933Z,4.30
2018-07-10T08:52:03.973Z,5.70
2018-07-10T08:54:33.680Z,4.80
2018-07-10T08:57:03.836Z,5.00
2018-07-10T08:59:34.212Z,4.80
2018-07-10T09:02:05.000Z,4.93
2018-07-10T09:04:34.837Z,4.50
2018-07-10T09:07:04.583Z,5.00
2018-07-10T09:09:34.436Z,5.10
2018-07-10T09:12:04.241Z,5.30
2018-07-10T09:14:34.039Z,5.13
2018-07-10T09:17:03.864Z,5.53
2018-07-10T09:19:33.768Z,5.00
2018-07-10T09:22:09.617Z,6.10
2018-07-10T09:24:50.253Z,5.50
2018-07-10T09:27:22.075Z,5.10
2018-07-10T09:29:52.123Z,5.87
2018-07-10T09:32:27.501Z,6.33
2018-07-10T09:34:58.641Z,5.70
2018-07-10T09:37:35.820Z,4.93
2018-07-10T09:40:20.696Z,5.50
2018-07-10T09:42:57.195Z,5.70
2018-07-10T09:45:34.964Z,5.67
2018-07-10T09:48:05.764Z,6.27
2018-07-10T09:50:35.716Z,5.37
2018-07-10T09:53:05.522Z,5.80
2018-07-10T09:55:35.477Z,5.67
2018-07-10T09:58:04.670Z,6.27
2018-07-10T10:00:39.826Z,5.67
2018-07-10T10:03:09.693Z,5.60
2018-07-10T10:05:43.802Z,4.77
2018-07-10T10:08:13.770Z,5.33
2018-07-10T10:10:43.645Z,4.30
2018-07-10T10:13:13.591Z,4.53
2018-07-10T10:15:43.636Z,5.80
2018-07-10T10:18:13.441Z,5.43
2018-07-10T10:20:43.355Z,5.40
2018-07-10T10:23:14.465Z,5.73
2018-07-10T10:25:48.382Z,5.10
2018-07-10T10:28:18.770Z,6.33
2018-07-10T10:30:48.556Z,5.90
2018-07-10T10:33:18.484Z,5.90
2018-07-10T10:35:48.399Z,7.80
2018-07-10T10:38:18.920Z,6.83
2018-07-10T10:40:49.968Z,6.73
2018-07-10T10:43:19.888Z,6.90
2018-07-10T10:45:49.856Z,6.07
2018-07-10T10:48:19.626Z,6.23
2018-07-10T10:50:50.796Z,7.20
2018-07-10T10:53:21.101Z,6.93
2018-07-10T10:55:51.049Z,7.03
2018-07-10T10:58:21.785Z,7.10
2018-07-10T11:00:50.951Z,6.77
2018-07-10T11:03:20.908Z,6.40
2018-07-10T11:05:50.766Z,7.23
2018-07-10T11:08:22.696Z,7.50
2018-07-10T11:10:52.664Z,6.70
2018-07-10T11:13:22.861Z,7.40
2018-07-10T11:15:52.768Z,6.53
2018-07-10T11:18:36.673Z,7.07
2018-07-10T11:21:10.140Z,7.10
2018-07-10T11:23:52.672Z,7.50
2018-07-10T11:26:34.986Z,6.40
2018-07-10T11:29:06.180Z,7.20
2018-07-10T11:31:36.696Z,7.77
2018-07-10T11:34:07.000Z,7.70
2018-07-10T11:36:37.133Z,6.87
2018-07-10T11:39:14.055Z,7.77
2018-07-10T11:41:53.317Z,6.40
2018-07-10T11:44:23.095Z,5.80
2018-07-10T11:46:52.964Z,5.40
2018-07-10T11:49:22.803Z,6.40
2018-07-10T11:51:52.829Z,6.13
2018-07-10T11:54:23.117Z,7.77
2018-07-10T11:56:52.886Z,7.47
2018-07-10T11:59:22.768Z,7.53
2018-07-10T12:01:52.797Z,7.87
2018-07-10T12:04:22.677Z,8.60
2018-07-10T12:06:53.825Z,8.73
2018-07-10T12:09:24.189Z,7.93
2018-07-10T12:11:54.298Z,8.40
2018-07-10T12:14:24.033Z,8.50
2018-07-10T12:16:53.953Z,8.33
2018-07-10T12:19:23.025Z,8.17
2018-07-10T12:21:53.004Z,7.87
2018-07-10T12:24:22.985Z,8.43
2018-07-10T12:26:52.944Z,8.20
2018-07-10T12:29:22.988Z,9.90
2018-07-10T12:31:52.865Z,9.60
2018-07-10T12:34:22.688Z,8.90
2018-07-10T12:36:52.499Z,7.50
2018-07-10T12:39:22.437Z,8.40
2018-07-10T12:41:52.332Z,9.10
2018-07-10T12:44:22.168Z,9.40
2018-07-10T12:46:51.984Z,8.70
2018-07-10T12:49:22.050Z,8.80
2018-07-10T12:51:51.849Z,8.30
2018-07-10T12:54:21.540Z,9.17
2018-07-10T12:56:51.420Z,8.13
2018-07-10T12:59:21.176Z,8.43
2018-07-10T13:01:51.147Z,8.70
2018-07-10T13:04:21.105Z,8.77
2018-07-10T13:06:50.909Z,8.63
2018-07-10T13:09:20.838Z,8.83
2018-07-10T13:11:50.703Z,8.10
2018-07-10T13:14:20.352Z,7.53
2018-07-10T13:16:49.420Z,7.50
2018-07-10T13:19:20.261Z,6.70
2018-07-10T13:21:50.158Z,7.17
2018-07-10T13:24:19.808Z,8.27
2018-07-10T13:26:49.678Z,7.53
2018-07-10T13:29:18.815Z,7.60
2018-07-10T13:31:48.840Z,7.40
2018-07-10T13:34:17.788Z,8.00
2018-07-10T13:36:47.700Z,6.83
2018-07-10T13:39:17.619Z,7.13
2018-07-10T13:41:47.457Z,7.13
2018-07-10T13:44:16.413Z,6.50
2018-07-10T13:46:46.371Z,6.50
2018-07-10T13:49:16.344Z,7.33
2018-07-10T13:51:46.141Z,5.23
2018-07-10T13:54:16.066Z,5.80
2018-07-10T13:56:46.090Z,5.80
2018-07-10T13:59:15.895Z,5.80
2018-07-10T14:01:45.866Z,5.60
2018-07-10T14:04:15.667Z,5.47
2018-07-10T14:06:45.493Z,5.90
2018-07-10T14:09:15.281Z,6.00
2018-07-10T14:11:45.978Z,6.73
2018-07-10T14:14:16.153Z,5.57
2018-07-10T14:16:47.057Z,5.60
2018-07-10T14:19:18.888Z,5.93
2018-07-10T14:21:48.730Z,5.10
2018-07-10T14:24:19.235Z,5.40
2018-07-10T14:26:49.177Z,5.90
2018-07-10T14:29:18.729Z,5.23
2018-07-10T14:31:48.322Z,5.50
2018-07-10T14:34:17.842Z,5.87
2018-07-10T14:36:47.473Z,4.77
2018-07-10T14:39:17.709Z,5.97
2018-07-10T14:41:48.048Z,5.57
2018-07-10T14:44:17.627Z,5.37
2018-07-10T14:46:47.370Z,4.33
2018-07-10T14:49:18.453Z,4.83
2018-07-10T14:51:51.004Z,5.50
2018-07-10T14:54:21.046Z,6.30
2018-07-10T14:56:50.128Z,5.47
2018-07-10T14:59:19.843Z,5.50
2018-07-10T15:01:50.096Z,5.60
2018-07-10T15:04:19.853Z,5.27
2018-07-10T15:06:49.457Z,5.70
2018-07-10T15:09:19.214Z,5.60
2018-07-10T15:11:49.677Z,5.40
2018-07-10T15:14:19.947Z,5.40
2018-07-10T15:16:56.064Z,6.10
2018-07-10T15:19:26.217Z,5.37
2018-07-10T15:21:57.335Z,5.63
2018-07-10T15:24:28.313Z,5.40
2018-07-10T15:26:59.956Z,6.03
2018-07-10T15:29:31.362Z,6.30
2018-07-10T15:32:01.720Z,5.30
2018-07-10T15:34:31.499Z,6.03
2018-07-10T15:37:02.335Z,5.93
2018-07-10T15:39:31.929Z,6.33
2018-07-10T15:42:01.909Z,5.70
2018-07-10T15:44:32.754Z,5.90
2018-07-10T15:47:04.281Z,6.43
2018-07-10T15:49:34.058Z,5.30
2018-07-10T15:52:05.393Z,5.67
2018-07-10T15:54:34.875Z,6.10
2018-07-10T15:57:05.890Z,5.60
2018-07-10T15:59:37.047Z,5.23
2018-07-10T16:02:06.580Z,6.30
2018-07-10T16:04:36.116Z,5.00
2018-07-10T16:07:05.712Z,3.90
2018-07-10T16:09:36.651Z,5.30
2018-07-10T16:12:06.948Z,7.83
2018-07-10T16:14:38.885Z,5.53
2018-07-10T16:17:38.898Z,5.00
2018-07-10T16:20:09.376Z,5.63
2018-07-10T16:22:42.941Z,4.83
2018-07-10T16:25:20.674Z,5.40
2018-07-10T16:27:50.259Z,5.47
2018-07-10T16:30:24.888Z,5.67
2018-07-10T16:32:54.479Z,6.27
2018-07-10T16:35:28.485Z,5.90
2018-07-10T16:37:58.243Z,5.13
2018-07-10T16:40:28.274Z,4.67
2018-07-10T16:42:58.563Z,5.60
2018-07-10T16:45:31.624Z,5.23
2018-07-10T16:50:16.270Z,5.60
2018-07-10T16:52:51.068Z,5.67
2018-07-10T16:55:20.742Z,5.67
2018-07-10T16:57:50.487Z,5.87
2018-07-10T17:00:20.526Z,6.57
2018-07-10T17:02:50.536Z,7.17
2018-07-10T17:05:20.503Z,6.27
2018-07-10T17:07:50.529Z,5.40
2018-07-10T17:10:20.786Z,6.00
2018-07-10T17:12:50.272Z,5.80
2018-07-10T17:15:19.998Z,5.33
2018-07-10T17:17:49.452Z,5.57
2018-07-10T17:20:19.358Z,7.33
2018-07-10T17:22:48.981Z,6.13
2018-07-10T17:25:19.008Z,5.80
2018-07-10T17:27:49.823Z,5.70
2018-07-10T17:30:19.689Z,5.70
2018-07-10T17:32:49.329Z,6.70
2018-07-10T17:35:18.927Z,5.83
2018-07-10T17:37:49.748Z,5.80
2018-07-10T17:40:21.547Z,5.70
2018-07-10T17:42:50.545Z,5.97
2018-07-10T17:45:21.011Z,5.97
2018-07-10T17:47:51.132Z,5.60
2018-07-10T17:50:21.080Z,5.73
2018-07-10T17:52:50.816Z,5.40
2018-07-10T17:55:20.674Z,5.50
2018-07-10T17:58:06.776Z,6.37
2018-07-10T18:00:36.636Z,5.10
2018-07-10T18:03:06.066Z,6.13
2018-07-10T18:05:35.612Z,6.17
2018-07-10T18:08:05.184Z,6.20
2018-07-10T18:10:34.752Z,5.90
2018-07-10T18:13:04.786Z,6.20
2018-07-10T18:15:34.650Z,6.57
2018-07-10T18:18:04.463Z,5.63
2018-07-10T18:20:34.371Z,6.23
2018-07-10T18:23:04.066Z,5.23
2018-07-10T18:25:33.473Z,6.90
2018-07-10T18:28:02.954Z,7.90
2018-07-10T18:30:32.620Z,7.00
2018-07-10T18:33:02.288Z,6.67
2018-07-10T18:35:33.761Z,6.50
2018-07-10T18:38:03.790Z,6.43
2018-07-10T18:40:33.307Z,6.77
2018-07-10T18:43:02.865Z,6.20
2018-07-10T18:45:32.413Z,6.50
2018-07-10T18:48:02.045Z,6.50
2018-07-10T18:50:31.661Z,6.00
2018-07-10T18:53:02.078Z,6.70
2018-07-10T18:55:31.561Z,6.30
2018-07-10T18:58:05.269Z,7.00
2018-07-10T19:00:42.590Z,6.30
2018-07-10T19:03:13.719Z,6.33
2018-07-10T19:05:46.624Z,6.63
2018-07-10T19:08:16.475Z,6.63
2018-07-10T19:10:47.192Z,6.20
2018-07-10T19:13:18.229Z,5.90
2018-07-10T19:15:48.948Z,6.67
2018-07-10T19:18:18.853Z,7.63
2018-07-10T19:20:55.897Z,7.83
2018-07-10T19:23:46.856Z,7.17
2018-07-10T19:26:17.257Z,7.23
2018-07-10T19:28:47.769Z,7.90
2018-07-10T19:31:19.795Z,7.50
2018-07-10T19:33:53.564Z,7.40
2018-07-10T19:36:23.504Z,7.53
2018-07-10T19:38:53.402Z,6.50
2018-07-10T19:41:23.462Z,6.67
2018-07-10T19:43:53.479Z,6.83
2018-07-10T19:46:23.337Z,7.50
2018-07-10T19:48:55.431Z,5.90
2018-07-10T19:51:27.999Z,6.27
2018-07-10T19:54:00.845Z,6.30
2018-07-10T19:56:30.637Z,5.87
2018-07-10T19:59:01.221Z,6.37
2018-07-10T20:01:40.223Z,6.10
2018-07-10T20:04:42.047Z,6.27
2018-07-10T20:07:16.970Z,6.73
2018-07-10T20:09:51.273Z,6.27
2018-07-10T20:12:26.567Z,6.27
2018-07-10T20:15:02.859Z,6.00
2018-07-10T20:17:36.227Z,6.10
2018-07-10T20:20:11.186Z,5.53
2018-07-10T20:22:52.494Z,4.90
2018-07-10T20:27:44.103Z,6.03
2018-07-10T20:31:22.161Z,6.30
2018-07-10T20:33:56.857Z,6.57
2018-07-10T20:36:26.676Z,7.47
2018-07-10T20:38:57.976Z,6.80
2018-07-10T20:41:32.912Z,5.97
2018-07-10T20:44:06.617Z,5.20
2018-07-10T20:46:40.957Z,6.70
2018-07-10T20:49:10.906Z,5.90
2018-07-10T20:52:18.791Z,7.03
2018-07-10T20:54:51.646Z,6.30
2018-07-10T20:58:31.180Z,6.80
2018-07-10T21:01:05.229Z,6.30
2018-07-10T21:03:56.583Z,7.00
2018-07-10T21:06:34.833Z,8.00
2018-07-10T21:09:09.000Z,7.20
2018-07-10T21:12:15.990Z,8.00
2018-07-10T21:14:51.668Z,7.30
2018-07-10T21:17:25.904Z,8.60
2018-07-10T21:20:06.640Z,8.23
2018-07-10T21:22:48.987Z,6.77
2018-07-10T21:25:35.223Z,7.30
2018-07-10T21:28:43.564Z,7.23
2018-07-10T21:31:33.693Z,6.43
2018-07-10T21:34:12.024Z,8.90
2018-07-10T21:38:55.139Z,7.00
2018-07-10T21:41:36.640Z,7.00
2018-07-10T21:46:26.256Z,6.30
2018-07-10T21:49:16.140Z,6.87
2018-07-10T21:51:49.504Z,7.33
2018-07-10T21:54:19.328Z,6.67
2018-07-10T21:56:48.886Z,7.13
2018-07-10T21:59:20.156Z,6.77
2018-07-10T22:02:04.929Z,6.00
2018-07-10T22:04:35.987Z,6.30
2018-07-10T22:07:12.181Z,5.70
2018-07-10T22:09:42.297Z,5.83
2018-07-10T22:12:17.209Z,5.73
2018-07-10T22:14:47.669Z,5.97
2018-07-10T22:17:25.296Z,5.47
2018-07-10T22:19:56.725Z,5.97
2018-07-10T22:22:32.452Z,6.13
2018-07-10T22:25:05.929Z,6.00
2018-07-10T22:27:37.932Z,6.80
2018-07-10T22:30:12.448Z,6.13
2018-07-10T22:32:47.140Z,6.00
2018-07-10T22:35:17.213Z,6.30
2018-07-10T22:37:47.742Z,5.73
2018-07-10T22:40:18.905Z,6.33
2018-07-10T22:42:48.820Z,6.60
2018-07-10T22:45:19.452Z,6.90
2018-07-10T22:47:49.387Z,6.60
2018-07-10T22:50:22.684Z,8.00
2018-07-10T22:52:54.427Z,7.30
2018-07-10T22:55:32.945Z,5.97
2018-07-10T22:58:05.436Z,6.90
2018-07-10T23:00:36.437Z,7.97
2018-07-10T23:03:17.733Z,6.73
2018-07-10T23:05:49.908Z,7.63
2018-07-10T23:08:22.099Z,6.60
2018-07-10T23:10:52.083Z,6.37
2018-07-10T23:13:22.065Z,6.10
2018-07-10T23:15:52.049Z,6.00
2018-07-10T23:18:22.123Z,6.30
2018-07-10T23:20:51.284Z,5.77
2018-07-10T23:23:21.624Z,6.50
2018-07-10T23:25:51.528Z,5.63
2018-07-10T23:28:23.237Z,5.23
2018-07-10T23:30:53.264Z,6.70
2018-07-10T23:33:25.630Z,5.57
2018-07-10T23:36:02.124Z,5.60
2018-07-10T23:39:10.029Z,5.90
2018-07-10T23:41:45.267Z,4.80
2018-07-10T23:44:15.185Z,6.10
2018-07-10T23:47:05.894Z,5.80
2018-07-10T23:49:35.695Z,6.10
2018-07-10T23:52:16.179Z,6.53
2018-07-10T23:54:46.343Z,5.57
2018-07-10T23:57:16.545Z,5.63
2018-07-10T23:59:46.300Z,6.03
